sensor_id;sensor_type;location;lat;lon;timestamp;P1;durP1;ratioP1;P2;durP2;ratioP2
33814;SDS011;20121;51.910;8.406;2023-04-28T00:00:25;3.07;;;2.87;;
33814;SDS011;20121;51.910;8.406;2023-04-28T00:02:51;1.27;;;1.17;;
33814;SDS011;20121;51.910;8.406;2023-04-28T00:05:17;1.88;;;1.42;;
33814;SDS011;20121;51.910;8.406;2023-04-28T00:07:44;3.30;;;1.98;;
33814;SDS011;20121;51.910;8.406;2023-04-28T00:10:10;2.73;;;1.57;;
33814;SDS011;20121;51.910;8.406;2023-04-28T00:12:35;1.10;;;1.00;;
33814;SDS011;20121;51.910;8.406;2023-04-28T00:15:01;2.60;;;2.03;;
33814;SDS011;20121;51.910;8.406;2023-04-28T00:17:27;1.55;;;1.20;;
33814;SDS011;20121;51.910;8.406;2023-04-28T00:19:53;1.83;;;1.73;;
33814;SDS011;20121;51.910;8.406;2023-04-28T00:22:19;3.53;;;1.63;;
33814;SDS011;20121;51.910;8.406;2023-04-28T00:24:44;2.13;;;1.50;;
33814;SDS011;20121;51.910;8.406;2023-04-28T00:27:10;1.67;;;1.57;;
33814;SDS011;20121;51.910;8.406;2023-04-28T00:29:36;5.63;;;1.40;;
33814;SDS011;20121;51.910;8.406;2023-04-28T00:32:01;2.00;;;1.57;;
33814;SDS011;20121;51.910;8.406;2023-04-28T00:34:27;1.43;;;1.27;;
33814;SDS011;20121;51.910;8.406;2023-04-28T00:36:54;5.03;;;1.98;;
33814;SDS011;20121;51.910;8.406;2023-04-28T00:39:19;1.40;;;1.30;;
33814;SDS011;20121;51.910;8.406;2023-04-28T00:41:47;4.80;;;1.42;;
33814;SDS011;20121;51.910;8.406;2023-04-28T00:44:12;2.50;;;1.83;;
33814;SDS011;20121;51.910;8.406;2023-04-28T00:46:38;6.33;;;2.17;;
33814;SDS011;20121;51.910;8.406;2023-04-28T00:49:04;1.83;;;1.10;;
33814;SDS011;20121;51.910;8.406;2023-04-28T00:51:30;3.27;;;1.50;;
33814;SDS011;20121;51.910;8.406;2023-04-28T00:53:57;1.25;;;1.15;;
33814;SDS011;20121;51.910;8.406;2023-04-28T00:56:23;1.40;;;1.30;;
33814;SDS011;20121;51.910;8.406;2023-04-28T00:58:51;2.15;;;1.98;;
33814;SDS011;20121;51.910;8.406;2023-04-28T01:01:17;3.17;;;1.65;;
33814;SDS011;20121;51.910;8.406;2023-04-28T01:03:43;1.80;;;1.20;;
33814;SDS011;20121;51.910;8.406;2023-04-28T01:06:09;9.40;;;2.20;;
33814;SDS011;20121;51.910;8.406;2023-04-28T01:08:35;1.70;;;1.60;;
33814;SDS011;20121;51.910;8.406;2023-04-28T01:11:02;1.67;;;1.58;;
33814;SDS011;20121;51.910;8.406;2023-04-28T01:13:27;3.87;;;1.73;;
33814;SDS011;20121;51.910;8.406;2023-04-28T01:15:56;3.60;;;2.20;;
33814;SDS011;20121;51.910;8.406;2023-04-28T01:18:22;1.70;;;1.50;;
33814;SDS011;20121;51.910;8.406;2023-04-28T01:20:48;3.00;;;1.48;;
33814;SDS011;20121;51.910;8.406;2023-04-28T01:23:14;1.97;;;1.33;;
33814;SDS011;20121;51.910;8.406;2023-04-28T01:25:41;2.38;;;2.05;;
33814;SDS011;20121;51.910;8.406;2023-04-28T01:28:07;1.48;;;1.25;;
33814;SDS011;20121;51.910;8.406;2023-04-28T01:30:34;3.05;;;2.03;;
33814;SDS011;20121;51.910;8.406;2023-04-28T01:32:59;8.93;;;2.70;;
33814;SDS011;20121;51.910;8.406;2023-04-28T01:35:26;1.60;;;1.20;;
33814;SDS011;20121;51.910;8.406;2023-04-28T01:37:51;1.83;;;1.40;;
33814;SDS011;20121;51.910;8.406;2023-04-28T01:40:17;3.67;;;2.07;;
33814;SDS011;20121;51.910;8.406;2023-04-28T01:42:43;2.73;;;2.40;;
33814;SDS011;20121;51.910;8.406;2023-04-28T01:45:09;3.53;;;1.97;;
33814;SDS011;20121;51.910;8.406;2023-04-28T01:47:35;3.75;;;1.55;;
33814;SDS011;20121;51.910;8.406;2023-04-28T01:50:00;2.03;;;1.37;;
33814;SDS011;20121;51.910;8.406;2023-04-28T01:52:26;2.30;;;1.70;;
33814;SDS011;20121;51.910;8.406;2023-04-28T01:54:52;2.70;;;2.27;;
33814;SDS011;20121;51.910;8.406;2023-04-28T01:57:36;1.70;;;1.40;;
33814;SDS011;20121;51.910;8.406;2023-04-28T02:00:02;3.43;;;2.00;;
33814;SDS011;20121;51.910;8.406;2023-04-28T02:02:29;1.27;;;1.10;;
33814;SDS011;20121;51.910;8.406;2023-04-28T02:04:54;2.27;;;1.40;;
33814;SDS011;20121;51.910;8.406;2023-04-28T02:07:22;3.42;;;1.77;;
33814;SDS011;20121;51.910;8.406;2023-04-28T02:09:47;5.40;;;2.13;;
33814;SDS011;20121;51.910;8.406;2023-04-28T02:12:13;1.60;;;1.50;;
33814;SDS011;20121;51.910;8.406;2023-04-28T02:14:39;3.67;;;2.83;;
33814;SDS011;20121;51.910;8.406;2023-04-28T02:17:04;2.60;;;2.40;;
33814;SDS011;20121;51.910;8.406;2023-04-28T02:19:30;2.37;;;1.60;;
33814;SDS011;20121;51.910;8.406;2023-04-28T02:21:56;1.60;;;1.50;;
33814;SDS011;20121;51.910;8.406;2023-04-28T02:24:21;1.43;;;1.33;;
33814;SDS011;20121;51.910;8.406;2023-04-28T02:26:47;5.10;;;2.03;;
33814;SDS011;20121;51.910;8.406;2023-04-28T02:29:13;1.70;;;1.50;;
33814;SDS011;20121;51.910;8.406;2023-04-28T02:31:38;3.33;;;2.90;;
33814;SDS011;20121;51.910;8.406;2023-04-28T02:34:04;2.03;;;1.93;;
33814;SDS011;20121;51.910;8.406;2023-04-28T02:36:30;2.90;;;2.47;;
33814;SDS011;20121;51.910;8.406;2023-04-28T02:38:57;2.55;;;2.13;;
33814;SDS011;20121;51.910;8.406;2023-04-28T02:41:22;2.53;;;2.23;;
33814;SDS011;20121;51.910;8.406;2023-04-28T02:43:48;3.37;;;3.10;;
33814;SDS011;20121;51.910;8.406;2023-04-28T02:46:14;1.97;;;1.80;;
33814;SDS011;20121;51.910;8.406;2023-04-28T02:48:39;3.43;;;1.80;;
33814;SDS011;20121;51.910;8.406;2023-04-28T02:51:05;3.70;;;2.70;;
33814;SDS011;20121;51.910;8.406;2023-04-28T02:53:31;2.43;;;2.00;;
33814;SDS011;20121;51.910;8.406;2023-04-28T02:55:56;3.07;;;2.33;;
33814;SDS011;20121;51.910;8.406;2023-04-28T02:58:23;2.22;;;1.52;;
33814;SDS011;20121;51.910;8.406;2023-04-28T03:00:49;2.47;;;2.27;;
33814;SDS011;20121;51.910;8.406;2023-04-28T03:03:15;2.25;;;2.00;;
33814;SDS011;20121;51.910;8.406;2023-04-28T03:05:40;1.97;;;1.87;;
33814;SDS011;20121;51.910;8.406;2023-04-28T03:08:06;5.17;;;3.03;;
33814;SDS011;20121;51.910;8.406;2023-04-28T03:10:32;3.03;;;2.75;;
33814;SDS011;20121;51.910;8.406;2023-04-28T03:12:58;2.23;;;2.00;;
33814;SDS011;20121;51.910;8.406;2023-04-28T03:15:23;6.60;;;1.90;;
33814;SDS011;20121;51.910;8.406;2023-04-28T03:17:49;2.97;;;2.70;;
33814;SDS011;20121;51.910;8.406;2023-04-28T03:20:15;2.60;;;2.00;;
33814;SDS011;20121;51.910;8.406;2023-04-28T03:22:40;2.97;;;2.00;;
33814;SDS011;20121;51.910;8.406;2023-04-28T03:25:06;5.43;;;2.17;;
33814;SDS011;20121;51.910;8.406;2023-04-28T03:27:32;3.25;;;2.95;;
33814;SDS011;20121;51.910;8.406;2023-04-28T03:29:58;2.60;;;2.40;;
33814;SDS011;20121;51.910;8.406;2023-04-28T03:32:23;2.73;;;2.37;;
33814;SDS011;20121;51.910;8.406;2023-04-28T03:34:49;3.37;;;1.93;;
33814;SDS011;20121;51.910;8.406;2023-04-28T03:37:15;2.80;;;1.93;;
33814;SDS011;20121;51.910;8.406;2023-04-28T03:39:40;3.33;;;2.10;;
33814;SDS011;20121;51.910;8.406;2023-04-28T03:42:06;1.57;;;1.47;;
33814;SDS011;20121;51.910;8.406;2023-04-28T03:44:31;4.27;;;2.63;;
33814;SDS011;20121;51.910;8.406;2023-04-28T03:46:57;1.97;;;1.87;;
33814;SDS011;20121;51.910;8.406;2023-04-28T03:49:23;2.53;;;1.77;;
33814;SDS011;20121;51.910;8.406;2023-04-28T03:51:48;3.10;;;2.80;;
33814;SDS011;20121;51.910;8.406;2023-04-28T03:54:15;4.53;;;2.47;;
33814;SDS011;20121;51.910;8.406;2023-04-28T03:56:41;2.47;;;2.20;;
33814;SDS011;20121;51.910;8.406;2023-04-28T03:59:06;3.07;;;2.20;;
33814;SDS011;20121;51.910;8.406;2023-04-28T04:01:35;2.13;;;1.67;;
33814;SDS011;20121;51.910;8.406;2023-04-28T04:04:01;2.47;;;2.27;;
33814;SDS011;20121;51.910;8.406;2023-04-28T04:06:26;3.23;;;2.60;;
33814;SDS011;20121;51.910;8.406;2023-04-28T04:08:52;8.60;;;2.20;;
33814;SDS011;20121;51.910;8.406;2023-04-28T04:11:18;3.43;;;2.03;;
33814;SDS011;20121;51.910;8.406;2023-04-28T04:13:43;2.67;;;1.73;;
33814;SDS011;20121;51.910;8.406;2023-04-28T04:16:09;2.03;;;1.87;;
33814;SDS011;20121;51.910;8.406;2023-04-28T04:18:34;2.80;;;1.73;;
33814;SDS011;20121;51.910;8.406;2023-04-28T04:21:00;1.90;;;1.70;;
33814;SDS011;20121;51.910;8.406;2023-04-28T04:23:26;5.10;;;2.70;;
33814;SDS011;20121;51.910;8.406;2023-04-28T04:25:51;6.63;;;3.47;;
33814;SDS011;20121;51.910;8.406;2023-04-28T04:28:17;4.40;;;2.07;;
33814;SDS011;20121;51.910;8.406;2023-04-28T04:30:42;2.37;;;2.20;;
33814;SDS011;20121;51.910;8.406;2023-04-28T04:33:09;6.13;;;3.17;;
33814;SDS011;20121;51.910;8.406;2023-04-28T04:35:34;3.57;;;1.80;;
33814;SDS011;20121;51.910;8.406;2023-04-28T04:38:00;6.83;;;2.20;;
33814;SDS011;20121;51.910;8.406;2023-04-28T04:40:27;2.60;;;2.30;;
33814;SDS011;20121;51.910;8.406;2023-04-28T04:42:52;3.13;;;2.63;;
33814;SDS011;20121;51.910;8.406;2023-04-28T04:45:18;3.17;;;2.63;;
33814;SDS011;20121;51.910;8.406;2023-04-28T04:47:43;3.70;;;3.00;;
33814;SDS011;20121;51.910;8.406;2023-04-28T04:50:09;3.33;;;2.40;;
33814;SDS011;20121;51.910;8.406;2023-04-28T04:52:35;2.70;;;2.50;;
33814;SDS011;20121;51.910;8.406;2023-04-28T04:55:01;4.97;;;2.27;;
33814;SDS011;20121;51.910;8.406;2023-04-28T04:57:27;6.37;;;2.60;;
33814;SDS011;20121;51.910;8.406;2023-04-28T04:59:52;2.60;;;2.33;;
33814;SDS011;20121;51.910;8.406;2023-04-28T05:02:18;3.47;;;2.43;;
33814;SDS011;20121;51.910;8.406;2023-04-28T05:04:44;3.53;;;2.23;;
33814;SDS011;20121;51.910;8.406;2023-04-28T05:07:09;3.90;;;2.37;;
33814;SDS011;20121;51.910;8.406;2023-04-28T05:09:35;2.50;;;1.90;;
33814;SDS011;20121;51.910;8.406;2023-04-28T05:12:00;5.13;;;3.60;;
33814;SDS011;20121;51.910;8.406;2023-04-28T05:14:26;2.83;;;2.43;;
33814;SDS011;20121;51.910;8.406;2023-04-28T05:16:52;5.83;;;2.30;;
33814;SDS011;20121;51.910;8.406;2023-04-28T05:19:17;2.93;;;2.10;;
33814;SDS011;20121;51.910;8.406;2023-04-28T05:21:43;2.30;;;2.10;;
33814;SDS011;20121;51.910;8.406;2023-04-28T05:24:11;4.13;;;3.22;;
33814;SDS011;20121;51.910;8.406;2023-04-28T05:26:37;6.07;;;3.38;;
33814;SDS011;20121;51.910;8.406;2023-04-28T05:29:03;4.30;;;3.00;;
33814;SDS011;20121;51.910;8.406;2023-04-28T05:31:28;4.87;;;3.30;;
33814;SDS011;20121;51.910;8.406;2023-04-28T05:33:54;3.60;;;2.57;;
33814;SDS011;20121;51.910;8.406;2023-04-28T05:36:20;2.23;;;1.97;;
33814;SDS011;20121;51.910;8.406;2023-04-28T05:38:45;3.00;;;2.27;;
33814;SDS011;20121;51.910;8.406;2023-04-28T05:41:11;2.13;;;1.93;;
33814;SDS011;20121;51.910;8.406;2023-04-28T05:43:36;2.60;;;2.20;;
33814;SDS011;20121;51.910;8.406;2023-04-28T05:46:02;4.87;;;2.90;;
33814;SDS011;20121;51.910;8.406;2023-04-28T05:48:28;6.27;;;2.80;;
33814;SDS011;20121;51.910;8.406;2023-04-28T05:50:53;3.60;;;2.20;;
33814;SDS011;20121;51.910;8.406;2023-04-28T05:53:19;5.00;;;3.77;;
33814;SDS011;20121;51.910;8.406;2023-04-28T05:55:45;2.27;;;2.07;;
33814;SDS011;20121;51.910;8.406;2023-04-28T05:58:10;3.83;;;2.90;;
33814;SDS011;20121;51.910;8.406;2023-04-28T06:00:36;3.20;;;2.50;;
33814;SDS011;20121;51.910;8.406;2023-04-28T06:03:02;4.33;;;2.83;;
33814;SDS011;20121;51.910;8.406;2023-04-28T06:05:27;2.60;;;2.40;;
33814;SDS011;20121;51.910;8.406;2023-04-28T06:07:53;3.13;;;2.57;;
33814;SDS011;20121;51.910;8.406;2023-04-28T06:10:20;4.72;;;2.22;;
33814;SDS011;20121;51.910;8.406;2023-04-28T06:12:47;3.63;;;2.63;;
33814;SDS011;20121;51.910;8.406;2023-04-28T06:15:12;9.93;;;3.60;;
33814;SDS011;20121;51.910;8.406;2023-04-28T06:17:38;2.83;;;2.63;;
33814;SDS011;20121;51.910;8.406;2023-04-28T06:20:04;3.77;;;2.30;;
33814;SDS011;20121;51.910;8.406;2023-04-28T06:22:31;4.47;;;2.75;;
33814;SDS011;20121;51.910;8.406;2023-04-28T06:24:57;6.23;;;2.87;;
33814;SDS011;20121;51.910;8.406;2023-04-28T06:27:22;3.10;;;2.63;;
33814;SDS011;20121;51.910;8.406;2023-04-28T06:29:48;4.63;;;2.43;;
33814;SDS011;20121;51.910;8.406;2023-04-28T06:32:14;4.93;;;2.60;;
33814;SDS011;20121;51.910;8.406;2023-04-28T06:34:40;8.03;;;3.53;;
33814;SDS011;20121;51.910;8.406;2023-04-28T06:37:06;4.25;;;2.97;;
33814;SDS011;20121;51.910;8.406;2023-04-28T06:39:32;5.90;;;3.13;;
33814;SDS011;20121;51.910;8.406;2023-04-28T06:41:57;2.47;;;2.07;;
33814;SDS011;20121;51.910;8.406;2023-04-28T06:44:23;4.17;;;3.77;;
33814;SDS011;20121;51.910;8.406;2023-04-28T06:46:49;4.30;;;2.97;;
33814;SDS011;20121;51.910;8.406;2023-04-28T06:49:14;3.50;;;2.07;;
33814;SDS011;20121;51.910;8.406;2023-04-28T06:51:40;4.13;;;2.80;;
33814;SDS011;20121;51.910;8.406;2023-04-28T06:54:06;8.00;;;3.67;;
33814;SDS011;20121;51.910;8.406;2023-04-28T06:56:31;3.13;;;2.50;;
33814;SDS011;20121;51.910;8.406;2023-04-28T06:58:57;4.37;;;3.00;;
33814;SDS011;20121;51.910;8.406;2023-04-28T07:01:23;3.57;;;3.27;;
33814;SDS011;20121;51.910;8.406;2023-04-28T07:03:49;3.75;;;2.30;;
33814;SDS011;20121;51.910;8.406;2023-04-28T07:06:15;7.35;;;2.70;;
33814;SDS011;20121;51.910;8.406;2023-04-28T07:08:42;6.97;;;2.50;;
33814;SDS011;20121;51.910;8.406;2023-04-28T07:11:07;2.42;;;2.22;;
33814;SDS011;20121;51.910;8.406;2023-04-28T07:13:33;4.27;;;3.07;;
33814;SDS011;20121;51.910;8.406;2023-04-28T07:15:59;3.73;;;2.93;;
33814;SDS011;20121;51.910;8.406;2023-04-28T07:18:25;4.47;;;2.83;;
33814;SDS011;20121;51.910;8.406;2023-04-28T07:20:50;3.20;;;2.90;;
33814;SDS011;20121;51.910;8.406;2023-04-28T07:23:16;14.50;;;3.40;;
33814;SDS011;20121;51.910;8.406;2023-04-28T07:25:41;4.47;;;3.53;;
33814;SDS011;20121;51.910;8.406;2023-04-28T07:28:07;3.50;;;3.10;;
33814;SDS011;20121;51.910;8.406;2023-04-28T07:30:33;9.23;;;3.90;;
33814;SDS011;20121;51.910;8.406;2023-04-28T07:32:59;9.50;;;4.05;;
33814;SDS011;20121;51.910;8.406;2023-04-28T07:35:25;4.50;;;2.60;;
33814;SDS011;20121;51.910;8.406;2023-04-28T07:37:51;4.87;;;3.10;;
33814;SDS011;20121;51.910;8.406;2023-04-28T07:40:17;7.33;;;2.80;;
33814;SDS011;20121;51.910;8.406;2023-04-28T07:42:44;4.47;;;3.00;;
33814;SDS011;20121;51.910;8.406;2023-04-28T07:45:10;3.00;;;2.22;;
33814;SDS011;20121;51.910;8.406;2023-04-28T07:47:36;5.43;;;3.85;;
33814;SDS011;20121;51.910;8.406;2023-04-28T07:50:02;7.80;;;3.23;;
33814;SDS011;20121;51.910;8.406;2023-04-28T07:52:29;6.07;;;3.70;;
33814;SDS011;20121;51.910;8.406;2023-04-28T07:54:55;11.18;;;2.88;;
33814;SDS011;20121;51.910;8.406;2023-04-28T07:57:21;10.80;;;3.53;;
33814;SDS011;20121;51.910;8.406;2023-04-28T07:59:47;3.37;;;2.93;;
33814;SDS011;20121;51.910;8.406;2023-04-28T08:02:12;4.03;;;2.90;;
33814;SDS011;20121;51.910;8.406;2023-04-28T08:04:39;4.95;;;2.90;;
33814;SDS011;20121;51.910;8.406;2023-04-28T08:07:05;3.80;;;3.50;;
33814;SDS011;20121;51.910;8.406;2023-04-28T08:09:31;4.55;;;3.72;;
33814;SDS011;20121;51.910;8.406;2023-04-28T08:11:56;4.47;;;3.90;;
33814;SDS011;20121;51.910;8.406;2023-04-28T08:14:23;5.13;;;3.45;;
33814;SDS011;20121;51.910;8.406;2023-04-28T08:16:49;3.37;;;2.97;;
33814;SDS011;20121;51.910;8.406;2023-04-28T08:19:14;4.43;;;2.80;;
33814;SDS011;20121;51.910;8.406;2023-04-28T08:21:40;6.07;;;4.03;;
33814;SDS011;20121;51.910;8.406;2023-04-28T08:24:06;5.20;;;4.00;;
33814;SDS011;20121;51.910;8.406;2023-04-28T08:26:32;3.03;;;2.50;;
33814;SDS011;20121;51.910;8.406;2023-04-28T08:28:58;4.63;;;3.70;;
33814;SDS011;20121;51.910;8.406;2023-04-28T08:31:24;3.60;;;3.00;;
33814;SDS011;20121;51.910;8.406;2023-04-28T08:33:49;5.33;;;3.03;;
33814;SDS011;20121;51.910;8.406;2023-04-28T08:36:16;6.00;;;4.57;;
33814;SDS011;20121;51.910;8.406;2023-04-28T08:38:45;5.13;;;3.40;;
33814;SDS011;20121;51.910;8.406;2023-04-28T08:41:12;6.45;;;3.15;;
33814;SDS011;20121;51.910;8.406;2023-04-28T08:43:39;4.18;;;2.53;;
33814;SDS011;20121;51.910;8.406;2023-04-28T08:46:07;3.55;;;3.05;;
33814;SDS011;20121;51.910;8.406;2023-04-28T08:48:38;2.85;;;2.55;;
33814;SDS011;20121;51.910;8.406;2023-04-28T08:51:07;3.00;;;2.50;;
33814;SDS011;20121;51.910;8.406;2023-04-28T08:53:35;3.85;;;2.05;;
33814;SDS011;20121;51.910;8.406;2023-04-28T08:56:03;2.70;;;2.50;;
33814;SDS011;20121;51.910;8.406;2023-04-28T08:58:30;2.92;;;2.08;;
33814;SDS011;20121;51.910;8.406;2023-04-28T09:00:59;5.88;;;2.53;;
33814;SDS011;20121;51.910;8.406;2023-04-28T09:03:27;3.90;;;3.00;;
33814;SDS011;20121;51.910;8.406;2023-04-28T09:05:52;2.90;;;2.43;;
33814;SDS011;20121;51.910;8.406;2023-04-28T09:08:18;5.70;;;2.33;;
33814;SDS011;20121;51.910;8.406;2023-04-28T09:10:44;3.30;;;2.60;;
33814;SDS011;20121;51.910;8.406;2023-04-28T09:13:09;4.20;;;2.67;;
33814;SDS011;20121;51.910;8.406;2023-04-28T09:15:50;5.25;;;2.83;;
33814;SDS011;20121;51.910;8.406;2023-04-28T09:18:23;4.97;;;2.25;;
33814;SDS011;20121;51.910;8.406;2023-04-28T09:20:48;5.27;;;2.80;;
33814;SDS011;20121;51.910;8.406;2023-04-28T09:23:15;4.27;;;3.10;;
33814;SDS011;20121;51.910;8.406;2023-04-28T09:26:01;4.88;;;3.33;;
33814;SDS011;20121;51.910;8.406;2023-04-28T09:28:26;6.88;;;4.15;;
33814;SDS011;20121;51.910;8.406;2023-04-28T09:30:52;2.47;;;2.33;;
33814;SDS011;20121;51.910;8.406;2023-04-28T09:33:18;8.70;;;3.50;;
33814;SDS011;20121;51.910;8.406;2023-04-28T09:35:45;3.80;;;3.10;;
33814;SDS011;20121;51.910;8.406;2023-04-28T09:38:12;4.25;;;3.35;;
33814;SDS011;20121;51.910;8.406;2023-04-28T09:41:00;6.07;;;4.20;;
33814;SDS011;20121;51.910;8.406;2023-04-28T09:43:26;3.97;;;3.05;;
33814;SDS011;20121;51.910;8.406;2023-04-28T09:45:55;3.80;;;3.00;;
33814;SDS011;20121;51.910;8.406;2023-04-28T09:48:29;10.68;;;3.65;;
33814;SDS011;20121;51.910;8.406;2023-04-28T09:50:58;4.07;;;2.75;;
33814;SDS011;20121;51.910;8.406;2023-04-28T09:53:26;8.32;;;4.63;;
33814;SDS011;20121;51.910;8.406;2023-04-28T09:55:52;4.10;;;3.65;;
33814;SDS011;20121;51.910;8.406;2023-04-28T09:58:20;5.40;;;4.10;;
33814;SDS011;20121;51.910;8.406;2023-04-28T10:00:53;4.80;;;3.55;;
33814;SDS011;20121;51.910;8.406;2023-04-28T10:03:22;5.18;;;3.92;;
33814;SDS011;20121;51.910;8.406;2023-04-28T10:05:50;3.25;;;2.95;;
33814;SDS011;20121;51.910;8.406;2023-04-28T10:08:17;3.90;;;3.10;;
33814;SDS011;20121;51.910;8.406;2023-04-28T10:10:44;8.75;;;2.92;;
33814;SDS011;20121;51.910;8.406;2023-04-28T10:13:13;5.40;;;3.25;;
33814;SDS011;20121;51.910;8.406;2023-04-28T10:15:41;2.97;;;2.60;;
33814;SDS011;20121;51.910;8.406;2023-04-28T10:18:06;5.68;;;3.00;;
33814;SDS011;20121;51.910;8.406;2023-04-28T10:20:33;4.93;;;4.47;;
33814;SDS011;20121;51.910;8.406;2023-04-28T10:25:54;4.72;;;2.15;;
33814;SDS011;20121;51.910;8.406;2023-04-28T10:28:23;4.55;;;3.40;;
33814;SDS011;20121;51.910;8.406;2023-04-28T10:33:39;3.80;;;3.28;;
33814;SDS011;20121;51.910;8.406;2023-04-28T10:36:05;2.80;;;2.55;;
33814;SDS011;20121;51.910;8.406;2023-04-28T10:38:32;6.97;;;3.55;;
33814;SDS011;20121;51.910;8.406;2023-04-28T10:40:59;5.95;;;3.28;;
33814;SDS011;20121;51.910;8.406;2023-04-28T10:43:37;3.60;;;3.30;;
33814;SDS011;20121;51.910;8.406;2023-04-28T10:46:05;5.13;;;3.72;;
33814;SDS011;20121;51.910;8.406;2023-04-28T10:58:52;4.55;;;3.10;;
33814;SDS011;20121;51.910;8.406;2023-04-28T11:01:31;5.18;;;3.70;;
33814;SDS011;20121;51.910;8.406;2023-04-28T11:12:24;3.92;;;3.58;;
33814;SDS011;20121;51.910;8.406;2023-04-28T11:19:35;3.05;;;2.85;;
33814;SDS011;20121;51.910;8.406;2023-04-28T11:22:06;3.92;;;3.38;;
33814;SDS011;20121;51.910;8.406;2023-04-28T11:24:48;3.25;;;2.67;;
33814;SDS011;20121;51.910;8.406;2023-04-28T11:27:23;4.82;;;3.00;;
33814;SDS011;20121;51.910;8.406;2023-04-28T11:29:50;5.68;;;3.15;;
33814;SDS011;20121;51.910;8.406;2023-04-28T11:32:16;4.83;;;2.60;;
33814;SDS011;20121;51.910;8.406;2023-04-28T11:34:50;4.80;;;4.13;;
33814;SDS011;20121;51.910;8.406;2023-04-28T11:37:16;9.80;;;3.43;;
33814;SDS011;20121;51.910;8.406;2023-04-28T11:39:42;9.97;;;3.40;;
33814;SDS011;20121;51.910;8.406;2023-04-28T11:42:08;5.67;;;4.10;;
33814;SDS011;20121;51.910;8.406;2023-04-28T11:44:34;4.20;;;3.55;;
33814;SDS011;20121;51.910;8.406;2023-04-28T11:47:01;4.50;;;2.97;;
33814;SDS011;20121;51.910;8.406;2023-04-28T11:49:29;3.63;;;2.95;;
33814;SDS011;20121;51.910;8.406;2023-04-28T11:51:55;4.82;;;3.53;;
33814;SDS011;20121;51.910;8.406;2023-04-28T11:54:24;3.22;;;2.92;;
33814;SDS011;20121;51.910;8.406;2023-04-28T11:56:52;4.03;;;3.35;;
33814;SDS011;20121;51.910;8.406;2023-04-28T11:59:23;4.78;;;3.03;;
33814;SDS011;20121;51.910;8.406;2023-04-28T12:01:50;3.65;;;3.10;;
33814;SDS011;20121;51.910;8.406;2023-04-28T12:09:42;3.60;;;2.80;;
33814;SDS011;20121;51.910;8.406;2023-04-28T12:12:11;6.28;;;2.75;;
33814;SDS011;20121;51.910;8.406;2023-04-28T12:14:54;5.13;;;4.15;;
33814;SDS011;20121;51.910;8.406;2023-04-28T12:17:32;5.03;;;3.38;;
33814;SDS011;20121;51.910;8.406;2023-04-28T12:19:59;4.07;;;2.80;;
33814;SDS011;20121;51.910;8.406;2023-04-28T12:22:26;3.67;;;2.85;;
33814;SDS011;20121;51.910;8.406;2023-04-28T12:25:05;3.60;;;2.90;;
33814;SDS011;20121;51.910;8.406;2023-04-28T12:27:35;4.78;;;3.50;;
33814;SDS011;20121;51.910;8.406;2023-04-28T12:32:41;3.30;;;3.00;;
33814;SDS011;20121;51.910;8.406;2023-04-28T12:35:07;6.75;;;3.58;;
33814;SDS011;20121;51.910;8.406;2023-04-28T12:37:33;5.13;;;3.20;;
33814;SDS011;20121;51.910;8.406;2023-04-28T12:40:00;3.88;;;2.92;;
33814;SDS011;20121;51.910;8.406;2023-04-28T12:42:26;5.18;;;2.53;;
33814;SDS011;20121;51.910;8.406;2023-04-28T12:44:53;3.30;;;3.00;;
33814;SDS011;20121;51.910;8.406;2023-04-28T12:47:18;2.93;;;2.63;;
33814;SDS011;20121;51.910;8.406;2023-04-28T12:49:44;4.07;;;2.70;;
33814;SDS011;20121;51.910;8.406;2023-04-28T12:52:10;5.50;;;3.10;;
33814;SDS011;20121;51.910;8.406;2023-04-28T12:54:36;5.30;;;3.60;;
33814;SDS011;20121;51.910;8.406;2023-04-28T12:57:03;3.50;;;3.00;;
33814;SDS011;20121;51.910;8.406;2023-04-28T12:59:29;4.68;;;2.75;;
33814;SDS011;20121;51.910;8.406;2023-04-28T13:01:55;4.40;;;2.67;;
33814;SDS011;20121;51.910;8.406;2023-04-28T13:04:21;4.93;;;3.10;;
33814;SDS011;20121;51.910;8.406;2023-04-28T13:06:46;4.80;;;2.60;;
33814;SDS011;20121;51.910;8.406;2023-04-28T13:09:13;3.70;;;2.25;;
33814;SDS011;20121;51.910;8.406;2023-04-28T13:11:40;5.00;;;3.67;;
33814;SDS011;20121;51.910;8.406;2023-04-28T13:14:06;3.88;;;2.60;;
33814;SDS011;20121;51.910;8.406;2023-04-28T13:16:32;3.00;;;2.53;;
33814;SDS011;20121;51.910;8.406;2023-04-28T13:18:59;4.32;;;2.80;;
33814;SDS011;20121;51.910;8.406;2023-04-28T13:21:25;3.70;;;2.72;;
33814;SDS011;20121;51.910;8.406;2023-04-28T13:23:53;3.42;;;3.00;;
33814;SDS011;20121;51.910;8.406;2023-04-28T13:26:19;3.10;;;2.80;;
33814;SDS011;20121;51.910;8.406;2023-04-28T13:28:47;4.75;;;3.38;;
33814;SDS011;20121;51.910;8.406;2023-04-28T13:31:13;3.28;;;2.85;;
33814;SDS011;20121;51.910;8.406;2023-04-28T13:33:39;3.92;;;2.97;;
33814;SDS011;20121;51.910;8.406;2023-04-28T13:36:05;3.07;;;2.77;;
33814;SDS011;20121;51.910;8.406;2023-04-28T13:38:32;6.25;;;3.47;;
33814;SDS011;20121;51.910;8.406;2023-04-28T13:40:58;3.63;;;2.50;;
33814;SDS011;20121;51.910;8.406;2023-04-28T13:43:24;3.95;;;2.75;;
33814;SDS011;20121;51.910;8.406;2023-04-28T13:45:50;3.80;;;3.33;;
33814;SDS011;20121;51.910;8.406;2023-04-28T13:48:16;4.07;;;3.00;;
33814;SDS011;20121;51.910;8.406;2023-04-28T13:50:42;2.55;;;2.35;;
33814;SDS011;20121;51.910;8.406;2023-04-28T13:53:07;3.30;;;3.00;;
33814;SDS011;20121;51.910;8.406;2023-04-28T13:55:33;4.50;;;3.40;;
33814;SDS011;20121;51.910;8.406;2023-04-28T13:57:59;4.97;;;2.60;;
33814;SDS011;20121;51.910;8.406;2023-04-28T14:00:28;4.28;;;3.15;;
33814;SDS011;20121;51.910;8.406;2023-04-28T14:02:56;3.92;;;2.70;;
33814;SDS011;20121;51.910;8.406;2023-04-28T14:05:22;5.93;;;3.15;;
33814;SDS011;20121;51.910;8.406;2023-04-28T14:07:47;4.73;;;3.73;;
33814;SDS011;20121;51.910;8.406;2023-04-28T14:10:13;5.63;;;3.30;;
33814;SDS011;20121;51.910;8.406;2023-04-28T14:12:39;4.40;;;2.70;;
33814;SDS011;20121;51.910;8.406;2023-04-28T14:15:05;5.30;;;3.07;;
33814;SDS011;20121;51.910;8.406;2023-04-28T14:17:31;6.38;;;3.65;;
33814;SDS011;20121;51.910;8.406;2023-04-28T14:19:58;4.82;;;3.50;;
33814;SDS011;20121;51.910;8.406;2023-04-28T14:22:25;3.47;;;2.60;;
33814;SDS011;20121;51.910;8.406;2023-04-28T14:24:51;7.03;;;3.63;;
33814;SDS011;20121;51.910;8.406;2023-04-28T14:27:17;4.95;;;3.45;;
33814;SDS011;20121;51.910;8.406;2023-04-28T14:29:43;3.65;;;2.97;;
33814;SDS011;20121;51.910;8.406;2023-04-28T14:32:12;4.95;;;3.00;;
33814;SDS011;20121;51.910;8.406;2023-04-28T14:34:38;4.93;;;3.38;;
33814;SDS011;20121;51.910;8.406;2023-04-28T14:37:04;4.07;;;2.50;;
33814;SDS011;20121;51.910;8.406;2023-04-28T14:39:30;5.75;;;4.47;;
33814;SDS011;20121;51.910;8.406;2023-04-28T14:41:55;5.20;;;4.20;;
33814;SDS011;20121;51.910;8.406;2023-04-28T14:44:21;4.97;;;3.37;;
33814;SDS011;20121;51.910;8.406;2023-04-28T14:46:47;3.37;;;3.07;;
33814;SDS011;20121;51.910;8.406;2023-04-28T14:49:12;6.60;;;4.10;;
33814;SDS011;20121;51.910;8.406;2023-04-28T14:51:38;4.27;;;3.37;;
33814;SDS011;20121;51.910;8.406;2023-04-28T14:54:04;3.90;;;2.93;;
33814;SDS011;20121;51.910;8.406;2023-04-28T14:56:30;6.77;;;3.93;;
33814;SDS011;20121;51.910;8.406;2023-04-28T14:58:55;3.77;;;2.90;;
33814;SDS011;20121;51.910;8.406;2023-04-28T15:01:21;5.50;;;3.97;;
33814;SDS011;20121;51.910;8.406;2023-04-28T15:03:46;4.83;;;3.70;;
33814;SDS011;20121;51.910;8.406;2023-04-28T15:06:12;3.90;;;3.30;;
33814;SDS011;20121;51.910;8.406;2023-04-28T15:08:38;5.67;;;3.90;;
33814;SDS011;20121;51.910;8.406;2023-04-28T15:11:04;5.68;;;4.32;;
33814;SDS011;20121;51.910;8.406;2023-04-28T15:13:30;4.47;;;3.80;;
33814;SDS011;20121;51.910;8.406;2023-04-28T15:15:56;5.67;;;4.33;;
33814;SDS011;20121;51.910;8.406;2023-04-28T15:18:22;6.37;;;3.67;;
33814;SDS011;20121;51.910;8.406;2023-04-28T15:20:50;4.20;;;3.60;;